sensor_id;sensor_type;location;lat;lon;timestamp;P1;durP1;ratioP1;P2;durP2;ratioP2
72286;SDS011;60221;45.696;16.076;2023-05-10T00:00:45;10.60;;;4.30;;
72286;SDS011;60221;45.696;16.076;2023-05-10T00:03:13;9.30;;;4.00;;
72286;SDS011;60221;45.696;16.076;2023-05-10T00:05:40;10.10;;;4.20;;
72286;SDS011;60221;45.696;16.076;2023-05-10T00:08:07;11.90;;;4.50;;
72286;SDS011;60221;45.696;16.076;2023-05-10T00:10:34;11.70;;;4.50;;
72286;SDS011;60221;45.696;16.076;2023-05-10T00:13:01;11.10;;;4.60;;
72286;SDS011;60221;45.696;16.076;2023-05-10T00:15:28;13.60;;;4.80;;
72286;SDS011;60221;45.696;16.076;2023-05-10T00:17:57;12.80;;;4.80;;
72286;SDS011;60221;45.696;16.076;2023-05-10T00:20:24;11.90;;;4.70;;
72286;SDS011;60221;45.696;16.076;2023-05-10T00:22:51;17.00;;;6.20;;
72286;SDS011;60221;45.696;16.076;2023-05-10T00:25:18;17.10;;;6.70;;
72286;SDS011;60221;45.696;16.076;2023-05-10T00:27:45;20.90;;;7.60;;
72286;SDS011;60221;45.696;16.076;2023-05-10T00:30:12;22.70;;;8.70;;
72286;SDS011;60221;45.696;16.076;2023-05-10T00:32:40;23.10;;;8.40;;
72286;SDS011;60221;45.696;16.076;2023-05-10T00:35:07;25.20;;;8.80;;
72286;SDS011;60221;45.696;16.076;2023-05-10T00:37:34;26.60;;;10.10;;
72286;SDS011;60221;45.696;16.076;2023-05-10T00:40:01;27.40;;;9.20;;
72286;SDS011;60221;45.696;16.076;2023-05-10T00:42:28;21.20;;;8.40;;
72286;SDS011;60221;45.696;16.076;2023-05-10T00:44:55;22.00;;;8.50;;
72286;SDS011;60221;45.696;16.076;2023-05-10T00:47:23;21.50;;;8.40;;
72286;SDS011;60221;45.696;16.076;2023-05-10T00:49:50;23.40;;;8.10;;
72286;SDS011;60221;45.696;16.076;2023-05-10T00:52:17;22.70;;;7.40;;
72286;SDS011;60221;45.696;16.076;2023-05-10T00:54:44;23.10;;;7.60;;
72286;SDS011;60221;45.696;16.076;2023-05-10T00:57:11;19.50;;;7.30;;
72286;SDS011;60221;45.696;16.076;2023-05-10T00:59:38;17.80;;;7.20;;
72286;SDS011;60221;45.696;16.076;2023-05-10T01:02:05;16.90;;;6.40;;
72286;SDS011;60221;45.696;16.076;2023-05-10T01:04:33;17.00;;;6.10;;
72286;SDS011;60221;45.696;16.076;2023-05-10T01:07:02;12.80;;;5.20;;
72286;SDS011;60221;45.696;16.076;2023-05-10T01:09:29;16.00;;;5.50;;
72286;SDS011;60221;45.696;16.076;2023-05-10T01:11:56;13.10;;;6.00;;
72286;SDS011;60221;45.696;16.076;2023-05-10T01:14:23;14.40;;;4.90;;
72286;SDS011;60221;45.696;16.076;2023-05-10T01:16:51;16.60;;;5.30;;
72286;SDS011;60221;45.696;16.076;2023-05-10T01:19:22;14.50;;;5.80;;
72286;SDS011;60221;45.696;16.076;2023-05-10T01:22:00;14.60;;;5.70;;
72286;SDS011;60221;45.696;16.076;2023-05-10T01:32:49;9.90;;;4.10;;
72286;SDS011;60221;45.696;16.076;2023-05-10T01:38:29;9.20;;;4.00;;
72286;SDS011;60221;45.696;16.076;2023-05-10T01:43:48;11.00;;;3.90;;
72286;SDS011;60221;45.696;16.076;2023-05-10T01:46:17;12.00;;;4.70;;
72286;SDS011;60221;45.696;16.076;2023-05-10T01:48:47;11.10;;;4.40;;
72286;SDS011;60221;45.696;16.076;2023-05-10T01:51:15;8.90;;;4.20;;
72286;SDS011;60221;45.696;16.076;2023-05-10T01:53:44;12.90;;;4.70;;
72286;SDS011;60221;45.696;16.076;2023-05-10T01:56:12;13.00;;;4.80;;
72286;SDS011;60221;45.696;16.076;2023-05-10T01:58:40;11.30;;;4.40;;
72286;SDS011;60221;45.696;16.076;2023-05-10T02:01:12;10.60;;;4.00;;
72286;SDS011;60221;45.696;16.076;2023-05-10T02:03:40;8.60;;;3.80;;
72286;SDS011;60221;45.696;16.076;2023-05-10T02:06:09;12.90;;;4.20;;
72286;SDS011;60221;45.696;16.076;2023-05-10T02:08:37;10.70;;;4.00;;
72286;SDS011;60221;45.696;16.076;2023-05-10T02:11:05;8.80;;;4.00;;
72286;SDS011;60221;45.696;16.076;2023-05-10T02:13:32;9.10;;;3.50;;
72286;SDS011;60221;45.696;16.076;2023-05-10T02:16:01;8.60;;;3.70;;
72286;SDS011;60221;45.696;16.076;2023-05-10T02:18:28;8.40;;;3.70;;
72286;SDS011;60221;45.696;16.076;2023-05-10T02:20:56;9.20;;;3.60;;
72286;SDS011;60221;45.696;16.076;2023-05-10T02:23:24;10.20;;;3.90;;
72286;SDS011;60221;45.696;16.076;2023-05-10T02:25:52;9.30;;;4.20;;
72286;SDS011;60221;45.696;16.076;2023-05-10T02:28:21;11.40;;;4.70;;
72286;SDS011;60221;45.696;16.076;2023-05-10T02:30:48;9.40;;;3.50;;
72286;SDS011;60221;45.696;16.076;2023-05-10T02:33:16;9.50;;;4.00;;
72286;SDS011;60221;45.696;16.076;2023-05-10T02:35:44;10.20;;;3.90;;
72286;SDS011;60221;45.696;16.076;2023-05-10T02:38:12;8.80;;;3.60;;
72286;SDS011;60221;45.696;16.076;2023-05-10T02:40:40;11.40;;;4.10;;
72286;SDS011;60221;45.696;16.076;2023-05-10T02:43:09;10.10;;;4.10;;
72286;SDS011;60221;45.696;16.076;2023-05-10T02:45:37;8.40;;;3.80;;
72286;SDS011;60221;45.696;16.076;2023-05-10T02:48:05;12.30;;;4.20;;
72286;SDS011;60221;45.696;16.076;2023-05-10T02:50:33;10.30;;;3.90;;
72286;SDS011;60221;45.696;16.076;2023-05-10T02:53:01;11.10;;;3.90;;
72286;SDS011;60221;45.696;16.076;2023-05-10T02:55:31;8.70;;;3.20;;
72286;SDS011;60221;45.696;16.076;2023-05-10T02:58:00;9.20;;;3.70;;
72286;SDS011;60221;45.696;16.076;2023-05-10T03:00:27;10.70;;;3.80;;
72286;SDS011;60221;45.696;16.076;2023-05-10T03:02:54;9.90;;;3.30;;
72286;SDS011;60221;45.696;16.076;2023-05-10T03:05:21;9.20;;;3.40;;
72286;SDS011;60221;45.696;16.076;2023-05-10T03:07:50;9.80;;;3.50;;
72286;SDS011;60221;45.696;16.076;2023-05-10T03:10:18;11.30;;;3.50;;
72286;SDS011;60221;45.696;16.076;2023-05-10T03:12:52;8.80;;;3.80;;
72286;SDS011;60221;45.696;16.076;2023-05-10T03:18:09;7.50;;;3.60;;
72286;SDS011;60221;45.696;16.076;2023-05-10T03:20:51;9.90;;;3.70;;
72286;SDS011;60221;45.696;16.076;2023-05-10T03:23:27;11.00;;;3.50;;
72286;SDS011;60221;45.696;16.076;2023-05-10T03:25:54;10.60;;;4.50;;
72286;SDS011;60221;45.696;16.076;2023-05-10T03:28:22;10.30;;;3.90;;
72286;SDS011;60221;45.696;16.076;2023-05-10T03:30:52;10.20;;;3.70;;
72286;SDS011;60221;45.696;16.076;2023-05-10T03:33:19;9.60;;;4.20;;
72286;SDS011;60221;45.696;16.076;2023-05-10T03:35:46;10.20;;;4.00;;
72286;SDS011;60221;45.696;16.076;2023-05-10T03:38:14;10.60;;;3.90;;
72286;SDS011;60221;45.696;16.076;2023-05-10T03:40:41;9.70;;;3.70;;
72286;SDS011;60221;45.696;16.076;2023-05-10T03:43:08;7.80;;;3.70;;
72286;SDS011;60221;45.696;16.076;2023-05-10T03:45:35;9.90;;;3.70;;
72286;SDS011;60221;45.696;16.076;2023-05-10T03:48:03;11.30;;;3.40;;
72286;SDS011;60221;45.696;16.076;2023-05-10T03:50:31;11.30;;;3.70;;
72286;SDS011;60221;45.696;16.076;2023-05-10T03:52:58;10.70;;;3.50;;
72286;SDS011;60221;45.696;16.076;2023-05-10T03:55:26;10.80;;;3.80;;
72286;SDS011;60221;45.696;16.076;2023-05-10T03:57:53;9.50;;;3.80;;
72286;SDS011;60221;45.696;16.076;2023-05-10T04:00:21;8.90;;;3.40;;
72286;SDS011;60221;45.696;16.076;2023-05-10T04:02:49;10.70;;;4.00;;
72286;SDS011;60221;45.696;16.076;2023-05-10T04:05:18;11.60;;;4.10;;
72286;SDS011;60221;45.696;16.076;2023-05-10T04:07:45;7.90;;;3.50;;
72286;SDS011;60221;45.696;16.076;2023-05-10T04:10:14;10.80;;;3.80;;
72286;SDS011;60221;45.696;16.076;2023-05-10T04:12:41;10.10;;;4.00;;
72286;SDS011;60221;45.696;16.076;2023-05-10T04:15:09;10.90;;;4.10;;
72286;SDS011;60221;45.696;16.076;2023-05-10T04:17:36;11.10;;;3.80;;
72286;SDS011;60221;45.696;16.076;2023-05-10T04:20:04;7.40;;;3.60;;
72286;SDS011;60221;45.696;16.076;2023-05-10T04:22:31;10.30;;;3.40;;
72286;SDS011;60221;45.696;16.076;2023-05-10T04:24:58;7.00;;;3.10;;
72286;SDS011;60221;45.696;16.076;2023-05-10T04:27:25;9.90;;;3.80;;
72286;SDS011;60221;45.696;16.076;2023-05-10T04:29:53;10.60;;;5.40;;
72286;SDS011;60221;45.696;16.076;2023-05-10T04:32:19;10.00;;;3.60;;
72286;SDS011;60221;45.696;16.076;2023-05-10T04:34:47;7.90;;;3.40;;
72286;SDS011;60221;45.696;16.076;2023-05-10T04:37:14;13.10;;;3.70;;
72286;SDS011;60221;45.696;16.076;2023-05-10T04:39:41;10.60;;;3.70;;
72286;SDS011;60221;45.696;16.076;2023-05-10T04:42:08;8.40;;;3.30;;
72286;SDS011;60221;45.696;16.076;2023-05-10T04:44:35;8.90;;;3.90;;
72286;SDS011;60221;45.696;16.076;2023-05-10T04:47:02;13.30;;;5.50;;
72286;SDS011;60221;45.696;16.076;2023-05-10T04:49:29;18.00;;;7.80;;
72286;SDS011;60221;45.696;16.076;2023-05-10T04:51:56;18.80;;;7.70;;
72286;SDS011;60221;45.696;16.076;2023-05-10T04:54:23;13.30;;;5.40;;
72286;SDS011;60221;45.696;16.076;2023-05-10T04:56:50;11.10;;;4.90;;
72286;SDS011;60221;45.696;16.076;2023-05-10T04:59:17;10.00;;;3.70;;
72286;SDS011;60221;45.696;16.076;2023-05-10T05:01:44;9.90;;;4.20;;
72286;SDS011;60221;45.696;16.076;2023-05-10T05:04:12;9.60;;;3.90;;
72286;SDS011;60221;45.696;16.076;2023-05-10T05:06:38;8.20;;;3.70;;
72286;SDS011;60221;45.696;16.076;2023-05-10T05:09:05;8.20;;;3.10;;
72286;SDS011;60221;45.696;16.076;2023-05-10T05:11:32;8.20;;;3.30;;
72286;SDS011;60221;45.696;16.076;2023-05-10T05:13:59;9.60;;;4.30;;
72286;SDS011;60221;45.696;16.076;2023-05-10T05:16:26;9.10;;;3.80;;
72286;SDS011;60221;45.696;16.076;2023-05-10T05:18:53;8.40;;;4.10;;
72286;SDS011;60221;45.696;16.076;2023-05-10T05:21:20;7.90;;;3.60;;
72286;SDS011;60221;45.696;16.076;2023-05-10T05:23:48;6.70;;;3.40;;
72286;SDS011;60221;45.696;16.076;2023-05-10T05:26:15;9.30;;;3.90;;
72286;SDS011;60221;45.696;16.076;2023-05-10T05:28:42;8.40;;;3.90;;
72286;SDS011;60221;45.696;16.076;2023-05-10T05:31:09;10.60;;;4.20;;
72286;SDS011;60221;45.696;16.076;2023-05-10T05:33:37;9.70;;;3.70;;
72286;SDS011;60221;45.696;16.076;2023-05-10T05:36:04;8.40;;;3.90;;
72286;SDS011;60221;45.696;16.076;2023-05-10T05:38:32;7.60;;;3.50;;
72286;SDS011;60221;45.696;16.076;2023-05-10T05:40:59;9.10;;;3.50;;
72286;SDS011;60221;45.696;16.076;2023-05-10T05:43:26;9.00;;;4.00;;
72286;SDS011;60221;45.696;16.076;2023-05-10T05:45:53;8.90;;;4.60;;
72286;SDS011;60221;45.696;16.076;2023-05-10T05:48:20;8.00;;;3.90;;
72286;SDS011;60221;45.696;16.076;2023-05-10T05:50:47;9.30;;;4.70;;
72286;SDS011;60221;45.696;16.076;2023-05-10T05:53:14;8.60;;;3.80;;
72286;SDS011;60221;45.696;16.076;2023-05-10T05:56:03;7.10;;;3.70;;
72286;SDS011;60221;45.696;16.076;2023-05-10T05:58:30;10.10;;;4.50;;
72286;SDS011;60221;45.696;16.076;2023-05-10T06:00:57;8.40;;;4.10;;
72286;SDS011;60221;45.696;16.076;2023-05-10T06:03:24;8.90;;;4.30;;
72286;SDS011;60221;45.696;16.076;2023-05-10T06:05:51;9.50;;;4.60;;
72286;SDS011;60221;45.696;16.076;2023-05-10T06:08:18;8.20;;;4.50;;
72286;SDS011;60221;45.696;16.076;2023-05-10T06:10:45;7.80;;;3.90;;
72286;SDS011;60221;45.696;16.076;2023-05-10T06:13:12;9.60;;;4.40;;
72286;SDS011;60221;45.696;16.076;2023-05-10T06:15:39;8.00;;;4.30;;
72286;SDS011;60221;45.696;16.076;2023-05-10T06:18:06;10.40;;;4.60;;
72286;SDS011;60221;45.696;16.076;2023-05-10T06:20:33;8.70;;;4.10;;
72286;SDS011;60221;45.696;16.076;2023-05-10T06:23:00;7.10;;;4.40;;
72286;SDS011;60221;45.696;16.076;2023-05-10T06:25:27;10.80;;;5.20;;
72286;SDS011;60221;45.696;16.076;2023-05-10T06:27:54;7.60;;;3.70;;
72286;SDS011;60221;45.696;16.076;2023-05-10T06:30:24;7.80;;;4.30;;
72286;SDS011;60221;45.696;16.076;2023-05-10T06:32:55;9.60;;;4.70;;
72286;SDS011;60221;45.696;16.076;2023-05-10T06:35:23;7.50;;;3.70;;
72286;SDS011;60221;45.696;16.076;2023-05-10T06:37:50;9.20;;;5.10;;
72286;SDS011;60221;45.696;16.076;2023-05-10T06:40:18;7.20;;;4.00;;
72286;SDS011;60221;45.696;16.076;2023-05-10T06:42:45;8.20;;;4.30;;
72286;SDS011;60221;45.696;16.076;2023-05-10T06:45:13;9.10;;;3.90;;
72286;SDS011;60221;45.696;16.076;2023-05-10T06:47:41;7.20;;;4.40;;
72286;SDS011;60221;45.696;16.076;2023-05-10T06:50:09;7.60;;;3.90;;
72286;SDS011;60221;45.696;16.076;2023-05-10T06:52:36;8.70;;;4.00;;
72286;SDS011;60221;45.696;16.076;2023-05-10T06:55:04;7.10;;;4.10;;
72286;SDS011;60221;45.696;16.076;2023-05-10T06:57:31;7.70;;;4.00;;
72286;SDS011;60221;45.696;16.076;2023-05-10T06:59:58;8.10;;;4.00;;
72286;SDS011;60221;45.696;16.076;2023-05-10T07:02:27;8.20;;;3.90;;
72286;SDS011;60221;45.696;16.076;2023-05-10T07:04:54;8.10;;;4.50;;
72286;SDS011;60221;45.696;16.076;2023-05-10T07:07:21;9.10;;;4.40;;
72286;SDS011;60221;45.696;16.076;2023-05-10T07:09:48;8.80;;;5.30;;
72286;SDS011;60221;45.696;16.076;2023-05-10T07:12:16;7.80;;;3.70;;
72286;SDS011;60221;45.696;16.076;2023-05-10T07:14:43;7.90;;;3.80;;
72286;SDS011;60221;45.696;16.076;2023-05-10T07:17:10;6.20;;;3.40;;
72286;SDS011;60221;45.696;16.076;2023-05-10T07:19:37;8.20;;;3.90;;
72286;SDS011;60221;45.696;16.076;2023-05-10T07:22:04;7.10;;;3.30;;
72286;SDS011;60221;45.696;16.076;2023-05-10T07:24:31;7.20;;;3.20;;
72286;SDS011;60221;45.696;16.076;2023-05-10T07:26:58;9.00;;;3.80;;
72286;SDS011;60221;45.696;16.076;2023-05-10T07:29:25;7.90;;;3.90;;
72286;SDS011;60221;45.696;16.076;2023-05-10T07:31:52;6.60;;;4.20;;
72286;SDS011;60221;45.696;16.076;2023-05-10T07:34:22;7.40;;;3.80;;
72286;SDS011;60221;45.696;16.076;2023-05-10T07:36:49;9.80;;;3.90;;
72286;SDS011;60221;45.696;16.076;2023-05-10T07:39:16;7.10;;;3.90;;
72286;SDS011;60221;45.696;16.076;2023-05-10T07:41:52;7.10;;;3.60;;
72286;SDS011;60221;45.696;16.076;2023-05-10T07:44:19;7.20;;;3.80;;
72286;SDS011;60221;45.696;16.076;2023-05-10T07:46:47;9.10;;;4.10;;
72286;SDS011;60221;45.696;16.076;2023-05-10T07:49:14;6.70;;;3.50;;
72286;SDS011;60221;45.696;16.076;2023-05-10T07:51:41;7.90;;;3.10;;
72286;SDS011;60221;45.696;16.076;2023-05-10T07:54:09;7.30;;;4.00;;
72286;SDS011;60221;45.696;16.076;2023-05-10T07:56:36;9.10;;;3.60;;
72286;SDS011;60221;45.696;16.076;2023-05-10T07:59:03;7.10;;;4.30;;
72286;SDS011;60221;45.696;16.076;2023-05-10T08:01:31;9.60;;;4.70;;
72286;SDS011;60221;45.696;16.076;2023-05-10T08:03:59;13.20;;;4.70;;
72286;SDS011;60221;45.696;16.076;2023-05-10T08:06:26;7.80;;;4.20;;
72286;SDS011;60221;45.696;16.076;2023-05-10T08:08:54;6.30;;;3.70;;
72286;SDS011;60221;45.696;16.076;2023-05-10T08:11:22;7.70;;;4.20;;
72286;SDS011;60221;45.696;16.076;2023-05-10T08:13:50;7.10;;;4.10;;
72286;SDS011;60221;45.696;16.076;2023-05-10T08:16:17;9.80;;;4.50;;
72286;SDS011;60221;45.696;16.076;2023-05-10T08:18:45;9.50;;;3.70;;
72286;SDS011;60221;45.696;16.076;2023-05-10T08:21:13;9.70;;;4.30;;
72286;SDS011;60221;45.696;16.076;2023-05-10T08:23:40;7.80;;;4.00;;
72286;SDS011;60221;45.696;16.076;2023-05-10T08:26:07;7.30;;;3.60;;
72286;SDS011;60221;45.696;16.076;2023-05-10T08:28:34;6.20;;;3.50;;
72286;SDS011;60221;45.696;16.076;2023-05-10T08:31:01;6.60;;;3.60;;
72286;SDS011;60221;45.696;16.076;2023-05-10T08:33:35;8.90;;;5.00;;
72286;SDS011;60221;45.696;16.076;2023-05-10T08:36:02;7.00;;;3.90;;
72286;SDS011;60221;45.696;16.076;2023-05-10T08:38:29;7.30;;;3.90;;
72286;SDS011;60221;45.696;16.076;2023-05-10T08:40:56;7.20;;;3.30;;
72286;SDS011;60221;45.696;16.076;2023-05-10T08:43:25;9.30;;;4.20;;
72286;SDS011;60221;45.696;16.076;2023-05-10T08:45:53;6.90;;;3.80;;
72286;SDS011;60221;45.696;16.076;2023-05-10T08:48:20;8.10;;;4.50;;
72286;SDS011;60221;45.696;16.076;2023-05-10T08:50:49;7.60;;;3.60;;
72286;SDS011;60221;45.696;16.076;2023-05-10T08:53:18;6.20;;;3.50;;
72286;SDS011;60221;45.696;16.076;2023-05-10T08:55:45;6.70;;;3.60;;
72286;SDS011;60221;45.696;16.076;2023-05-10T08:58:12;9.60;;;4.10;;
72286;SDS011;60221;45.696;16.076;2023-05-10T09:00:40;8.00;;;3.50;;
72286;SDS011;60221;45.696;16.076;2023-05-10T09:03:07;6.90;;;4.10;;
72286;SDS011;60221;45.696;16.076;2023-05-10T09:05:34;6.30;;;3.20;;
72286;SDS011;60221;45.696;16.076;2023-05-10T09:08:03;6.70;;;3.00;;
72286;SDS011;60221;45.696;16.076;2023-05-10T09:10:31;7.10;;;2.80;;
72286;SDS011;60221;45.696;16.076;2023-05-10T09:12:58;9.20;;;3.20;;
72286;SDS011;60221;45.696;16.076;2023-05-10T09:15:25;5.50;;;3.30;;
72286;SDS011;60221;45.696;16.076;2023-05-10T09:17:52;6.10;;;3.30;;
72286;SDS011;60221;45.696;16.076;2023-05-10T09:20:21;6.70;;;3.20;;
72286;SDS011;60221;45.696;16.076;2023-05-10T09:22:49;6.30;;;3.60;;
72286;SDS011;60221;45.696;16.076;2023-05-10T09:25:16;7.90;;;3.60;;
72286;SDS011;60221;45.696;16.076;2023-05-10T09:27:44;8.90;;;3.60;;
72286;SDS011;60221;45.696;16.076;2023-05-10T09:30:45;6.70;;;4.10;;
72286;SDS011;60221;45.696;16.076;2023-05-10T09:33:06;6.60;;;2.90;;
72286;SDS011;60221;45.696;16.076;2023-05-10T09:35:33;6.40;;;3.80;;
72286;SDS011;60221;45.696;16.076;2023-05-10T09:38:02;7.00;;;3.60;;
72286;SDS011;60221;45.696;16.076;2023-05-10T09:40:30;6.60;;;3.30;;
72286;SDS011;60221;45.696;16.076;2023-05-10T09:43:01;8.40;;;3.90;;
72286;SDS011;60221;45.696;16.076;2023-05-10T09:45:29;7.00;;;3.10;;
72286;SDS011;60221;45.696;16.076;2023-05-10T09:47:57;7.20;;;3.70;;
72286;SDS011;60221;45.696;16.076;2023-05-10T09:50:25;8.40;;;3.60;;
72286;SDS011;60221;45.696;16.076;2023-05-10T09:52:57;5.50;;;3.00;;
72286;SDS011;60221;45.696;16.076;2023-05-10T09:55:25;6.30;;;2.90;;
72286;SDS011;60221;45.696;16.076;2023-05-10T09:57:59;6.50;;;3.40;;
72286;SDS011;60221;45.696;16.076;2023-05-10T10:00:27;6.30;;;3.70;;
72286;SDS011;60221;45.696;16.076;2023-05-10T10:02:55;5.80;;;3.30;;
72286;SDS011;60221;45.696;16.076;2023-05-10T10:05:32;5.90;;;3.20;;
72286;SDS011;60221;45.696;16.076;2023-05-10T10:08:02;5.50;;;3.10;;
72286;SDS011;60221;45.696;16.076;2023-05-10T10:10:31;6.20;;;3.40;;
72286;SDS011;60221;45.696;16.076;2023-05-10T10:12:58;7.50;;;3.60;;
72286;SDS011;60221;45.696;16.076;2023-05-10T10:15:26;5.80;;;3.30;;
72286;SDS011;60221;45.696;16.076;2023-05-10T10:17:53;6.40;;;3.10;;
72286;SDS011;60221;45.696;16.076;2023-05-10T10:20:21;6.90;;;3.10;;
72286;SDS011;60221;45.696;16.076;2023-05-10T10:22:49;6.90;;;3.00;;
72286;SDS011;60221;45.696;16.076;2023-05-10T10:25:16;5.80;;;3.20;;
72286;SDS011;60221;45.696;16.076;2023-05-10T10:35:24;4.90;;;3.10;;
72286;SDS011;60221;45.696;16.076;2023-05-10T10:37:51;6.90;;;3.70;;
72286;SDS011;60221;45.696;16.076;2023-05-10T10:40:34;6.10;;;3.80;;
72286;SDS011;60221;45.696;16.076;2023-05-10T10:43:44;6.30;;;3.00;;
72286;SDS011;60221;45.696;16.076;2023-05-10T10:46:10;5.90;;;3.50;;
72286;SDS011;60221;45.696;16.076;2023-05-10T10:48:41;5.50;;;3.00;;
72286;SDS011;60221;45.696;16.076;2023-05-10T10:51:08;5.80;;;3.10;;
72286;SDS011;60221;45.696;16.076;2023-05-10T10:53:38;5.80;;;3.50;;
72286;SDS011;60221;45.696;16.076;2023-05-10T10:56:10;6.50;;;3.60;;
72286;SDS011;60221;45.696;16.076;2023-05-10T10:58:37;6.40;;;3.50;;
72286;SDS011;60221;45.696;16.076;2023-05-10T11:01:11;6.40;;;3.10;;
72286;SDS011;60221;45.696;16.076;2023-05-10T11:03:39;7.80;;;3.30;;
72286;SDS011;60221;45.696;16.076;2023-05-10T11:06:06;5.80;;;3.20;;
72286;SDS011;60221;45.696;16.076;2023-05-10T11:08:35;4.90;;;3.20;;
72286;SDS011;60221;45.696;16.076;2023-05-10T11:11:08;7.10;;;3.40;;
72286;SDS011;60221;45.696;16.076;2023-05-10T11:13:42;5.90;;;2.90;;
72286;SDS011;60221;45.696;16.076;2023-05-10T11:16:10;8.00;;;2.90;;
72286;SDS011;60221;45.696;16.076;2023-05-10T11:18:37;6.20;;;3.50;;
72286;SDS011;60221;45.696;16.076;2023-05-10T11:21:04;6.10;;;3.70;;
72286;SDS011;60221;45.696;16.076;2023-05-10T11:26:07;5.70;;;3.10;;
72286;SDS011;60221;45.696;16.076;2023-05-10T11:28:48;6.30;;;3.90;;
72286;SDS011;60221;45.696;16.076;2023-05-10T11:31:16;5.60;;;3.20;;
72286;SDS011;60221;45.696;16.076;2023-05-10T11:33:50;5.70;;;2.90;;
72286;SDS011;60221;45.696;16.076;2023-05-10T11:36:18;6.80;;;3.30;;
72286;SDS011;60221;45.696;16.076;2023-05-10T11:38:45;6.30;;;3.60;;
72286;SDS011;60221;45.696;16.076;2023-05-10T11:41:13;6.70;;;3.30;;
72286;SDS011;60221;45.696;16.076;2023-05-10T11:43:40;6.40;;;3.70;;
72286;SDS011;60221;45.696;16.076;2023-05-10T11:46:11;7.00;;;3.00;;
72286;SDS011;60221;45.696;16.076;2023-05-10T11:48:39;5.30;;;3.10;;
72286;SDS011;60221;45.696;16.076;2023-05-10T11:51:09;5.60;;;2.90;;
72286;SDS011;60221;45.696;16.076;2023-05-10T11:53:37;5.80;;;3.10;;
72286;SDS011;60221;45.696;16.076;2023-05-10T11:56:08;5.80;;;2.90;;
72286;SDS011;60221;45.696;16.076;2023-05-10T11:58:36;7.50;;;3.30;;
72286;SDS011;60221;45.696;16.076;2023-05-10T12:01:04;6.90;;;2.80;;
72286;SDS011;60221;45.696;16.076;2023-05-10T12:03:32;5.20;;;2.70;;
72286;SDS011;60221;45.696;16.076;2023-05-10T12:06:00;4.80;;;2.50;;
72286;SDS011;60221;45.696;16.076;2023-05-10T12:08:28;5.20;;;2.50;;
72286;SDS011;60221;45.696;16.076;2023-05-10T12:11:06;6.80;;;2.90;;
72286;SDS011;60221;45.696;16.076;2023-05-10T12:13:37;5.80;;;2.90;;
72286;SDS011;60221;45.696;16.076;2023-05-10T12:16:15;4.80;;;2.60;;
72286;SDS011;60221;45.696;16.076;2023-05-10T12:18:42;7.90;;;2.90;;
72286;SDS011;60221;45.696;16.076;2023-05-10T12:21:10;5.30;;;2.90;;
72286;SDS011;60221;45.696;16.076;2023-05-10T12:23:38;5.60;;;2.50;;
72286;SDS011;60221;45.696;16.076;2023-05-10T12:26:06;5.40;;;2.30;;
72286;SDS011;60221;45.696;16.076;2023-05-10T12:28:33;6.70;;;3.10;;
72286;SDS011;60221;45.696;16.076;2023-05-10T12:31:01;5.60;;;3.00;;
72286;SDS011;60221;45.696;16.076;2023-05-10T12:33:34;7.90;;;3.20;;
72286;SDS011;60221;45.696;16.076;2023-05-10T12:36:01;5.50;;;2.90;;
72286;SDS011;60221;45.696;16.076;2023-05-10T12:38:32;5.00;;;2.80;;
72286;SDS011;60221;45.696;16.076;2023-05-10T12:41:04;5.20;;;2.60;;
72286;SDS011;60221;45.696;16.076;2023-05-10T12:43:31;7.40;;;3.10;;
72286;SDS011;60221;45.696;16.076;2023-05-10T12:46:03;6.30;;;2.80;;
72286;SDS011;60221;45.696;16.076;2023-05-10T12:48:31;5.30;;;3.30;;
72286;SDS011;60221;45.696;16.076;2023-05-10T12:50:58;5.50;;;2.70;;
72286;SDS011;60221;45.696;16.076;2023-05-10T12:53:25;6.60;;;3.20;;
72286;SDS011;60221;45.696;16.076;2023-05-10T12:55:52;5.50;;;3.50;;
72286;SDS011;60221;45.696;16.076;2023-05-10T12:58:19;5.90;;;3.50;;
72286;SDS011;60221;45.696;16.076;2023-05-10T13:00:53;6.50;;;3.60;;
72286;SDS011;60221;45.696;16.076;2023-05-10T13:03:20;7.20;;;3.70;;
72286;SDS011;60221;45.696;16.076;2023-05-10T13:05:47;6.30;;;3.20;;
72286;SDS011;60221;45.696;16.076;2023-05-10T13:08:14;6.10;;;3.60;;
72286;SDS011;60221;45.696;16.076;2023-05-10T13:10:41;8.90;;;4.90;;
72286;SDS011;60221;45.696;16.076;2023-05-10T13:13:09;15.50;;;7.90;;
72286;SDS011;60221;45.696;16.076;2023-05-10T13:15:36;74.00;;;29.10;;
72286;SDS011;60221;45.696;16.076;2023-05-10T13:18:03;25.70;;;11.40;;
72286;SDS011;60221;45.696;16.076;2023-05-10T13:20:30;13.10;;;6.60;;
72286;SDS011;60221;45.696;16.076;2023-05-10T13:22:57;7.60;;;4.60;;
72286;SDS011;60221;45.696;16.076;2023-05-10T13:25:24;8.90;;;4.80;;
72286;SDS011;60221;45.696;16.076;2023-05-10T13:27:51;9.30;;;4.70;;
72286;SDS011;60221;45.696;16.076;2023-05-10T13:30:18;6.70;;;4.20;;
72286;SDS011;60221;45.696;16.076;2023-05-10T13:32:45;10.50;;;5.60;;
72286;SDS011;60221;45.696;16.076;2023-05-10T13:35:12;6.10;;;3.60;;
72286;SDS011;60221;45.696;16.076;2023-05-10T13:37:39;6.80;;;3.40;;
72286;SDS011;60221;45.696;16.076;2023-05-10T13:40:06;9.90;;;6.70;;
72286;SDS011;60221;45.696;16.076;2023-05-10T13:42:34;9.30;;;5.70;;
72286;SDS011;60221;45.696;16.076;2023-05-10T13:45:01;10.10;;;6.50;;
72286;SDS011;60221;45.696;16.076;2023-05-10T13:47:31;8.50;;;5.20;;
72286;SDS011;60221;45.696;16.076;2023-05-10T13:49:57;8.30;;;5.10;;
72286;SDS011;60221;45.696;16.076;2023-05-10T13:52:25;6.90;;;4.30;;
72286;SDS011;60221;45.696;16.076;2023-05-10T13:54:52;6.30;;;3.50;;
72286;SDS011;60221;45.696;16.076;2023-05-10T13:57:21;6.20;;;3.70;;
72286;SDS011;60221;45.696;16.076;2023-05-10T13:59:49;6.80;;;4.10;;
72286;SDS011;60221;45.696;16.076;2023-05-10T14:02:17;6.50;;;3.80;;
72286;SDS011;60221;45.696;16.076;2023-05-10T14:04:43;6.30;;;3.70;;
72286;SDS011;60221;45.696;16.076;2023-05-10T14:07:10;7.80;;;3.90;;
72286;SDS011;60221;45.696;16.076;2023-05-10T14:09:37;7.40;;;4.50;;
72286;SDS011;60221;45.696;16.076;2023-05-10T14:12:04;7.10;;;4.10;;
72286;SDS011;60221;45.696;16.076;2023-05-10T14:14:31;7.40;;;4.80;;
72286;SDS011;60221;45.696;16.076;2023-05-10T14:16:58;6.80;;;3.70;;
72286;SDS011;60221;45.696;16.076;2023-05-10T14:19:25;6.70;;;3.30;;
72286;SDS011;60221;45.696;16.076;2023-05-10T14:21:53;6.90;;;4.20;;
72286;SDS011;60221;45.696;16.076;2023-05-10T14:24:20;6.00;;;3.60;;
72286;SDS011;60221;45.696;16.076;2023-05-10T14:26:47;6.00;;;3.40;;
72286;SDS011;60221;45.696;16.076;2023-05-10T14:29:14;11.50;;;6.80;;
72286;SDS011;60221;45.696;16.076;2023-05-10T14:31:41;12.20;;;7.10;;
72286;SDS011;60221;45.696;16.076;2023-05-10T14:34:08;9.10;;;5.40;;
72286;SDS011;60221;45.696;16.076;2023-05-10T14:36:35;16.50;;;8.20;;
72286;SDS011;60221;45.696;16.076;2023-05-10T14:39:02;33.50;;;14.10;;
72286;SDS011;60221;45.696;16.076;2023-05-10T14:41:29;26.20;;;12.40;;
72286;SDS011;60221;45.696;16.076;2023-05-10T14:43:56;41.40;;;20.00;;
72286;SDS011;60221;45.696;16.076;2023-05-10T14:46:24;38.40;;;19.70;;
72286;SDS011;60221;45.696;16.076;2023-05-10T14:48:51;14.00;;;8.30;;
72286;SDS011;60221;45.696;16.076;2023-05-10T14:51:18;8.20;;;4.80;;
72286;SDS011;60221;45.696;16.076;2023-05-10T14:53:48;8.40;;;5.70;;
72286;SDS011;60221;45.696;16.076;2023-05-10T14:56:18;6.60;;;4.40;;
72286;SDS011;60221;45.696;16.076;2023-05-10T14:58:45;6.30;;;3.60;;
72286;SDS011;60221;45.696;16.076;2023-05-10T15:01:13;6.50;;;4.00;;
72286;SDS011;60221;45.696;16.076;2023-05-10T15:03:40;5.70;;;3.40;;